Time;durP1;ratioP1;P1;durP2;ratioP2;P2;SDS_P1;SDS_P2;PMS_P1;PMS_P2;Temp;Humidity;BMP_temperature;BMP_pressure;BME280_temperature;BME280_humidity;BME280_pressure;Samples;Min_cycle;Max_cycle;Signal;HPM_P1;HPM_P2
2023/05/17 00:01:29;;;;;;;5.70;4.03;;;;;;;9.97;nan;99902.53;5066531;28;20218;-79
2023/05/17 00:03:55;;;;;;;3.20;2.90;;;;;;;9.98;nan;99904.22;5064458;28;20266;-79
2023/05/17 00:06:21;;;;;;;3.03;2.83;;;;;;;10.01;nan;99912.88;5066316;28;20216;-79
2023/05/17 00:08:46;;;;;;;4.50;3.60;;;;;;;10.02;nan;99911.91;5064980;28;20213;-79
2023/05/17 00:11:12;;;;;;;5.23;3.80;;;;;;;10.03;nan;99919.72;5067589;28;20214;-79
2023/05/17 00:13:38;;;;;;;3.77;3.43;;;;;;;10.04;nan;99920.56;5068080;28;20741;-79
2023/05/17 00:16:04;;;;;;;4.10;3.45;;;;;;;10.03;nan;99929.38;5065625;28;20234;-79
2023/05/17 00:18:30;;;;;;;5.70;4.20;;;;;;;10.01;nan;99929.44;5068370;28;21055;-79
2023/05/17 00:20:55;;;;;;;3.27;2.97;;;;;;;10.03;nan;99926.75;5066312;28;20491;-79
2023/05/17 00:23:20;;;;;;;5.83;3.57;;;;;;;10.03;nan;99924.97;5068328;28;20305;-79
2023/05/17 00:25:46;;;;;;;6.33;3.30;;;;;;;10.04;nan;99931.91;5063694;28;20214;-79
2023/05/17 00:28:11;;;;;;;4.97;3.93;;;;;;;10.03;nan;99932.00;5070119;28;20234;-79
2023/05/17 00:30:37;;;;;;;4.20;3.47;;;;;;;10.02;nan;99930.28;5063514;28;20210;-79
2023/05/17 00:33:03;;;;;;;7.63;3.37;;;;;;;10.00;nan;99924.31;5067520;28;20537;-79
2023/05/17 00:35:29;;;;;;;5.35;3.90;;;;;;;10.01;nan;99931.22;5044998;28;20439;-79
2023/05/17 00:37:55;;;;;;;3.78;2.70;;;;;;;10.01;nan;99926.00;5070081;28;20254;-80
2023/05/17 00:40:21;;;;;;;3.83;3.23;;;;;;;9.99;nan;99939.22;5065953;28;20217;-79
2023/05/17 00:42:46;;;;;;;2.88;2.50;;;;;;;9.95;nan;99925.41;5052519;28;20274;-79
2023/05/17 00:45:12;;;;;;;7.33;6.30;;;;;;;9.93;nan;99934.28;5068648;28;20227;-80
2023/05/17 00:47:37;;;;;;;3.67;2.93;;;;;;;9.89;nan;99928.38;5069620;28;20232;-80
2023/05/17 00:50:04;;;;;;;5.73;2.80;;;;;;;9.83;nan;99939.22;5066930;28;20253;-80
2023/05/17 00:52:30;;;;;;;2.70;2.45;;;;;;;9.78;nan;99943.88;5067062;28;20217;-80
2023/05/17 00:54:55;;;;;;;4.93;3.10;;;;;;;9.74;nan;99944.94;5064571;28;20238;-80
2023/05/17 00:57:21;;;;;;;10.20;3.03;;;;;;;9.71;nan;99945.97;5066678;28;20202;-80
2023/05/17 00:59:48;;;;;;;3.70;3.17;;;;;;;9.69;nan;99939.97;5064623;28;20292;-80
2023/05/17 01:02:13;;;;;;;4.00;2.65;;;;;;;9.65;nan;99940.22;5065492;28;20804;-80
2023/05/17 01:04:40;;;;;;;4.00;3.47;;;;;;;9.59;nan;99941.41;5067583;28;20195;-80
2023/05/17 01:07:05;;;;;;;2.97;2.28;;;;;;;9.52;nan;99938.25;5070285;28;20451;-80
2023/05/17 01:09:31;;;;;;;2.60;2.27;;;;;;;9.48;nan;99934.13;5065777;28;20216;-80
2023/05/17 01:12:18;;;;;;;4.30;2.47;;;;;;;9.46;nan;99943.81;5065235;28;20204;-80
2023/05/17 01:15:05;;;;;;;5.55;2.58;;;;;;;9.38;nan;99943.38;5067591;28;20238;-80
2023/05/17 01:18:03;;;;;;;4.10;2.15;;;;;;;9.33;nan;99949.81;5051755;28;20208;-80
2023/05/17 01:20:37;;;;;;;3.20;2.35;;;;;;;9.18;nan;99954.06;5014216;28;20217;-81
2023/05/17 01:23:33;;;;;;;4.45;2.70;;;;;;;9.12;nan;99957.03;5047945;28;20257;-79
2023/05/17 01:26:17;;;;;;;3.42;2.20;;;;;;;9.04;nan;99954.78;5066612;28;20223;-80
2023/05/17 01:28:46;;;;;;;4.10;2.28;;;;;;;8.97;nan;99959.50;5045314;28;20794;-80
2023/05/17 01:31:13;;;;;;;5.35;2.70;;;;;;;8.92;nan;99966.75;5065127;28;20473;-80
2023/05/17 01:33:38;;;;;;;2.45;2.25;;;;;;;8.91;nan;99964.19;5048935;28;20204;-80
2023/05/17 01:36:04;;;;;;;2.80;2.60;;;;;;;8.93;nan;99957.97;5067494;28;20494;-80
2023/05/17 01:38:29;;;;;;;4.13;2.90;;;;;;;8.94;nan;99962.28;5045153;28;20212;-80
2023/05/17 01:41:13;;;;;;;3.23;2.17;;;;;;;8.94;nan;99949.19;5066117;28;20461;-80
2023/05/17 01:43:47;;;;;;;3.75;1.90;;;;;;;8.89;nan;99966.91;5063244;28;20315;-80
2023/05/17 01:46:30;;;;;;;3.30;2.30;;;;;;;8.91;nan;99969.44;5070273;28;20485;-80
2023/05/17 01:48:59;;;;;;;2.83;2.60;;;;;;;8.88;nan;99970.44;5067376;28;20276;-80
2023/05/17 01:51:31;;;;;;;3.60;2.40;;;;;;;8.83;nan;99973.31;5064700;28;20220;-80
2023/05/17 01:54:08;;;;;;;4.68;2.85;;;;;;;8.83;nan;99972.44;5047520;28;20223;-80
2023/05/17 01:56:40;;;;;;;3.25;2.85;;;;;;;8.83;nan;99962.84;5068881;28;20227;-80
2023/05/17 01:59:06;;;;;;;3.25;2.95;;;;;;;8.76;nan;99971.09;5050921;28;20222;-80
2023/05/17 02:01:33;;;;;;;3.83;3.53;;;;;;;8.68;nan;99974.09;5048807;28;20231;-80
2023/05/17 02:03:59;;;;;;;2.88;2.53;;;;;;;8.63;nan;99973.47;5047443;28;20276;-80
2023/05/17 02:06:24;;;;;;;4.20;3.60;;;;;;;8.66;nan;99975.09;5044251;28;20455;-80
2023/05/17 02:08:50;;;;;;;3.60;3.40;;;;;;;8.67;nan;99968.91;5067662;28;20223;-80
2023/05/17 02:11:15;;;;;;;4.07;3.67;;;;;;;8.66;nan;99980.31;5067528;28;20214;-79
2023/05/17 02:13:40;;;;;;;5.50;3.50;;;;;;;8.63;nan;99974.28;5046631;28;20232;-78
2023/05/17 02:16:06;;;;;;;4.97;3.33;;;;;;;8.60;nan;99976.22;5082834;28;20264;-78
2023/05/17 02:18:34;;;;;;;4.03;3.00;;;;;;;8.57;nan;99981.63;5085613;28;20217;-80
2023/05/17 02:21:00;;;;;;;4.68;2.67;;;;;;;8.57;nan;99979.00;5084183;28;20223;-80
2023/05/17 02:23:26;;;;;;;3.73;2.87;;;;;;;8.58;nan;99978.91;5089629;28;20216;-80
2023/05/17 02:25:51;;;;;;;4.37;3.77;;;;;;;8.62;nan;99980.47;5085497;28;20232;-80
2023/05/17 02:28:16;;;;;;;6.13;3.30;;;;;;;8.67;nan;99967.16;5080274;28;20572;-80
2023/05/17 02:30:43;;;;;;;3.50;3.23;;;;;;;8.72;nan;99969.53;5087358;28;20235;-80
2023/05/17 02:33:08;;;;;;;3.33;2.40;;;;;;;8.76;nan;99973.69;5089381;28;20219;-80
2023/05/17 02:35:34;;;;;;;2.33;2.10;;;;;;;8.72;nan;99975.63;5091810;28;20293;-80
2023/05/17 02:37:59;;;;;;;3.43;2.57;;;;;;;8.67;nan;99979.38;5093326;28;20216;-80
2023/05/17 02:40:24;;;;;;;2.40;2.10;;;;;;;8.63;nan;99986.56;5088221;28;20219;-80
2023/05/17 02:42:50;;;;;;;2.70;2.13;;;;;;;8.61;nan;99978.78;5086620;28;20211;-80
2023/05/17 02:45:15;;;;;;;2.40;1.97;;;;;;;8.66;nan;99977.69;5094410;28;20811;-80
2023/05/17 02:47:41;;;;;;;3.33;3.13;;;;;;;8.70;nan;99987.94;5092998;28;20226;-80
2023/05/17 02:50:07;;;;;;;4.00;2.90;;;;;;;8.74;nan;99983.41;5091114;28;20231;-80
2023/05/17 02:52:33;;;;;;;4.90;3.10;;;;;;;8.69;nan;99972.31;5089878;28;20242;-80
2023/05/17 02:54:58;;;;;;;4.80;3.10;;;;;;;8.56;nan;99983.41;5088854;28;20314;-80
2023/05/17 02:57:24;;;;;;;6.53;2.77;;;;;;;8.46;nan;99989.16;5088814;28;20236;-80
2023/05/17 02:59:49;;;;;;;3.97;2.80;;;;;;;8.41;nan;99987.59;5087302;28;20220;-80
2023/05/17 03:02:15;;;;;;;3.60;3.20;;;;;;;8.39;nan;99980.75;5090595;28;20204;-80
2023/05/17 03:04:40;;;;;;;3.80;3.50;;;;;;;8.39;nan;99980.75;5089611;28;20455;-80
2023/05/17 03:07:07;;;;;;;4.05;3.65;;;;;;;8.43;nan;99982.31;5087833;28;20357;-80
2023/05/17 03:09:33;;;;;;;3.20;2.70;;;;;;;8.42;nan;99983.22;5085248;28;20880;-80
2023/05/17 03:11:59;;;;;;;3.25;2.70;;;;;;;8.43;nan;99995.41;5086031;28;20219;-80
2023/05/17 03:14:29;;;;;;;2.55;2.25;;;;;;;8.40;nan;99995.53;5085407;28;20243;-81
2023/05/17 03:16:54;;;;;;;3.20;2.70;;;;;;;8.38;nan;99990.34;5083312;28;20919;-80
2023/05/17 03:19:20;;;;;;;4.05;3.25;;;;;;;8.34;nan;99996.63;5086093;28;20222;-81
2023/05/17 03:21:46;;;;;;;4.03;3.00;;;;;;;8.32;nan;99995.88;5090372;28;20216;-81
2023/05/17 03:24:12;;;;;;;7.17;2.43;;;;;;;8.32;nan;99997.66;5087595;28;20224;-81
2023/05/17 03:26:38;;;;;;;4.18;3.40;;;;;;;8.32;nan;99993.25;5086400;28;20296;-80
2023/05/17 03:29:05;;;;;;;4.15;3.55;;;;;;;8.32;nan;99988.03;5092505;28;20669;-80
2023/05/17 03:31:31;;;;;;;3.60;2.80;;;;;;;8.31;nan;99991.56;5087772;28;20244;-80
2023/05/17 03:33:56;;;;;;;3.60;3.30;;;;;;;8.23;nan;99985.00;5087860;28;20483;-80
2023/05/17 03:36:22;;;;;;;5.20;3.80;;;;;;;8.17;nan;99992.22;5088394;28;20668;-80
2023/05/17 03:38:47;;;;;;;3.67;3.37;;;;;;;8.11;nan;99997.75;5087961;28;20239;-81
2023/05/17 03:41:16;;;;;;;4.20;3.47;;;;;;;8.08;nan;100000.50;5086228;28;20212;-80
2023/05/17 03:43:42;;;;;;;3.13;2.88;;;;;;;8.06;nan;99999.72;5080145;28;20212;-81
2023/05/17 03:46:10;;;;;;;3.17;2.83;;;;;;;8.04;nan;99998.94;5087670;28;20284;-81
2023/05/17 03:48:35;;;;;;;3.57;2.87;;;;;;;7.95;nan;100005.47;5087812;28;20243;-80
2023/05/17 03:51:01;;;;;;;3.67;2.87;;;;;;;7.91;nan;100008.28;5086903;28;20486;-81
2023/05/17 03:53:27;;;;;;;2.90;2.63;;;;;;;7.91;nan;100009.16;5087687;28;20984;-80
2023/05/17 03:55:52;;;;;;;5.63;3.50;;;;;;;7.91;nan;100013.50;5086979;28;20238;-80
2023/05/17 03:58:17;;;;;;;4.27;2.93;;;;;;;7.89;nan;100010.13;5090216;28;20216;-81
2023/05/17 04:00:43;;;;;;;2.93;2.40;;;;;;;7.88;nan;100014.50;5086748;28;20213;-81
2023/05/17 04:03:13;;;;;;;4.72;3.40;;;;;;;7.91;nan;100018.75;5089272;28;20680;-81
2023/05/17 04:05:40;;;;;;;4.80;3.23;;;;;;;7.92;nan;100023.06;5088744;28;20973;-81
2023/05/17 04:08:06;;;;;;;4.85;3.20;;;;;;;7.92;nan;100023.06;5088388;28;20214;-81
2023/05/17 04:10:32;;;;;;;3.47;2.53;;;;;;;7.93;nan;100024.75;5080415;28;20229;-81
2023/05/17 04:12:57;;;;;;;7.87;3.83;;;;;;;7.97;nan;100027.16;5085643;28;20510;-81
2023/05/17 04:15:23;;;;;;;3.47;3.17;;;;;;;8.04;nan;100027.72;5083821;28;20320;-80
2023/05/17 04:17:48;;;;;;;6.23;3.50;;;;;;;8.12;nan;100022.97;5078157;28;20237;-80
2023/05/17 04:20:14;;;;;;;3.17;2.90;;;;;;;8.15;nan;100030.69;5082210;28;20248;-80
2023/05/17 04:22:40;;;;;;;3.50;3.20;;;;;;;8.19;nan;100026.16;5076677;28;20255;-80
2023/05/17 04:25:07;;;;;;;3.75;3.45;;;;;;;8.26;nan;100030.19;5079322;28;20230;-80
2023/05/17 04:27:34;;;;;;;7.53;3.15;;;;;;;8.30;nan;100034.34;5080041;28;20270;-81
2023/05/17 04:30:00;;;;;;;9.93;4.40;;;;;;;8.27;nan;100031.88;5076285;28;20195;-81
2023/05/17 04:32:26;;;;;;;2.83;2.63;;;;;;;8.30;nan;100036.13;5075956;28;20459;-81
2023/05/17 04:34:52;;;;;;;7.35;3.40;;;;;;;8.37;nan;100032.28;5084484;28;20516;-80
2023/05/17 04:37:18;;;;;;;6.53;4.63;;;;;;;8.47;nan;100027.50;5082878;28;20251;-80
2023/05/17 04:39:46;;;;;;;3.55;3.10;;;;;;;8.54;nan;100037.59;5084083;28;20284;-81
2023/05/17 04:42:12;;;;;;;3.53;3.03;;;;;;;8.66;nan;100032.69;5083971;28;20281;-80
2023/05/17 04:44:42;;;;;;;4.93;3.50;;;;;;;8.85;nan;100038.72;5081355;28;20237;-80
2023/05/17 04:47:08;;;;;;;4.53;2.85;;;;;;;9.08;nan;100027.94;5083001;28;20209;-80
2023/05/17 04:49:34;;;;;;;5.22;2.90;;;;;;;9.40;nan;100025.44;5080849;28;20212;-80
2023/05/17 04:51:59;;;;;;;3.10;2.80;;;;;;;9.83;nan;100032.78;5079593;28;20215;-81
2023/05/17 04:54:25;;;;;;;3.07;2.77;;;;;;;10.30;nan;100034.66;5082947;28;20235;-81
2023/05/17 04:56:50;;;;;;;7.00;3.30;;;;;;;10.75;nan;100033.81;5084699;28;20199;-81
2023/05/17 04:59:29;;;;;;;4.05;3.45;;;;;;;11.26;nan;100038.72;5084112;28;20212;-81
2023/05/17 05:01:55;;;;;;;2.90;1.87;;;;;;;11.66;nan;100031.91;5089177;28;20207;-81
2023/05/17 05:04:20;;;;;;;3.22;2.35;;;;;;;12.05;nan;100033.06;5083896;28;20216;-81
2023/05/17 05:06:47;;;;;;;4.05;2.28;;;;;;;12.37;nan;100031.00;5085363;28;20235;-81
2023/05/17 05:09:13;;;;;;;2.60;2.40;;;;;;;12.66;nan;100024.78;5083720;28;20204;-81
2023/05/17 05:11:39;;;;;;;2.97;2.53;;;;;;;12.94;nan;100039.63;5084296;28;20448;-81
2023/05/17 05:14:05;;;;;;;3.60;2.65;;;;;;;13.24;nan;100029.66;5083392;28;20301;-81
2023/05/17 05:16:30;;;;;;;6.03;2.87;;;;;;;13.43;nan;100031.06;5046994;28;20241;-81
2023/05/17 05:18:56;;;;;;;5.67;2.17;;;;;;;13.53;nan;100044.47;5038382;28;20440;-81
2023/05/17 05:21:21;;;;;;;2.40;2.10;;;;;;;13.67;nan;100042.56;5045281;28;20441;-81
2023/05/17 05:23:46;;;;;;;5.90;4.80;;;;;;;13.85;nan;100037.81;5061598;28;20234;-81
2023/05/17 05:26:14;;;;;;;8.68;2.50;;;;;;;14.12;nan;100048.22;5043323;28;20234;-81
2023/05/17 05:28:40;;;;;;;5.35;2.22;;;;;;;14.36;nan;100044.72;5041290;28;20207;-81
2023/05/17 05:31:07;;;;;;;3.88;2.00;;;;;;;14.62;nan;100040.22;5040318;28;20207;-81
2023/05/17 05:33:40;;;;;;;3.70;2.22;;;;;;;14.89;nan;100047.09;5040497;28;20263;-81
2023/05/17 05:36:05;;;;;;;4.30;2.63;;;;;;;15.22;nan;100052.47;5042521;28;20230;-80
2023/05/17 05:38:31;;;;;;;2.83;2.30;;;;;;;15.51;nan;100046.75;5040593;28;20209;-81
2023/05/17 05:40:57;;;;;;;4.45;2.20;;;;;;;15.79;nan;100048.13;5040258;28;20197;-81
2023/05/17 05:43:23;;;;;;;3.20;1.93;;;;;;;16.08;nan;100048.47;5052500;28;20269;-81
2023/05/17 05:45:48;;;;;;;2.33;1.50;;;;;;;16.41;nan;100049.38;5052691;28;20511;-81
2023/05/17 05:48:14;;;;;;;2.53;1.73;;;;;;;16.68;nan;100040.16;5047369;28;20207;-81
2023/05/17 05:50:42;;;;;;;2.40;2.00;;;;;;;16.89;nan;100041.06;5059969;28;20251;-81
2023/05/17 05:53:10;;;;;;;4.30;1.98;;;;;;;17.11;nan;100041.91;5059107;28;20316;-81
2023/05/17 05:55:39;;;;;;;3.35;2.55;;;;;;;17.19;nan;100047.44;5038882;28;20223;-81
2023/05/17 05:58:05;;;;;;;2.60;1.73;;;;;;;17.29;nan;100043.03;5038499;28;20248;-81
2023/05/17 06:00:31;;;;;;;4.97;1.80;;;;;;;17.46;nan;100053.03;5037387;28;20245;-81
2023/05/17 06:02:56;;;;;;;4.57;2.70;;;;;;;17.66;nan;100050.50;5057432;28;20199;-81
2023/05/17 06:05:22;;;;;;;3.00;2.20;;;;;;;18.01;nan;100046.63;5058023;28;20458;-81
2023/05/17 06:07:47;;;;;;;3.83;2.13;;;;;;;18.23;nan;100049.09;5062187;28;20211;-81
2023/05/17 06:10:12;;;;;;;3.67;2.23;;;;;;;18.51;nan;100057.25;5059708;28;20244;-81
2023/05/17 06:12:38;;;;;;;6.50;2.20;;;;;;;18.65;nan;100048.88;5068918;28;20475;-81
2023/05/17 06:15:04;;;;;;;2.83;1.93;;;;;;;18.69;nan;100052.94;5065193;28;20236;-80
2023/05/17 06:17:30;;;;;;;3.77;2.43;;;;;;;18.85;nan;100054.22;5062597;28;20210;-81
2023/05/17 06:19:55;;;;;;;4.00;2.60;;;;;;;18.84;nan;100049.88;5061768;28;20465;-81
2023/05/17 06:22:20;;;;;;;5.40;2.10;;;;;;;18.68;nan;100053.91;5065638;28;20675;-81
2023/05/17 06:24:46;;;;;;;6.93;1.87;;;;;;;18.69;nan;100052.94;5061444;28;20269;-81
2023/05/17 06:27:11;;;;;;;2.30;2.10;;;;;;;18.78;nan;100052.13;5065701;28;20229;-81
2023/05/17 06:29:36;;;;;;;2.57;1.83;;;;;;;18.86;nan;100055.91;5064111;28;20198;-81
2023/05/17 06:32:03;;;;;;;2.00;1.90;;;;;;;19.02;nan;100058.84;5063708;28;20284;-81
2023/05/17 06:34:28;;;;;;;2.15;1.75;;;;;;;19.12;nan;100054.38;5064769;28;20659;-81
2023/05/17 06:36:54;;;;;;;5.57;2.73;;;;;;;19.29;nan;100055.47;5061156;28;20299;-81
2023/05/17 06:39:20;;;;;;;2.67;1.93;;;;;;;19.50;nan;100051.78;5066777;28;20214;-81
2023/05/17 06:41:45;;;;;;;9.33;2.30;;;;;;;19.60;nan;100056.06;5061225;28;20231;-81
2023/05/17 06:44:15;;;;;;;3.03;1.53;;;;;;;19.64;nan;100059.31;5049323;28;20230;-81
2023/05/17 06:46:40;;;;;;;2.70;1.70;;;;;;;19.57;nan;100060.88;5069850;28;20455;-81
2023/05/17 06:49:06;;;;;;;3.57;1.80;;;;;;;19.48;nan;100064.41;5066531;28;20215;-81
2023/05/17 06:51:31;;;;;;;3.10;1.67;;;;;;;19.54;nan;100059.34;5069339;28;20263;-81
2023/05/17 06:53:57;;;;;;;3.13;1.70;;;;;;;19.68;nan;100052.72;5069696;28;20219;-81
2023/05/17 06:56:22;;;;;;;2.83;1.60;;;;;;;19.75;nan;100050.34;5069762;28;20220;-81
2023/05/17 06:58:47;;;;;;;2.20;1.53;;;;;;;19.89;nan;100057.84;5063710;28;20205;-81
2023/05/17 07:01:13;;;;;;;1.97;1.53;;;;;;;20.03;nan;100059.19;5067796;28;20203;-81
2023/05/17 07:03:38;;;;;;;3.43;1.30;;;;;;;20.08;nan;100062.25;5067102;28;20201;-80
2023/05/17 07:06:04;;;;;;;4.77;1.50;;;;;;;19.92;nan;100057.56;5061086;28;20438;-80
2023/05/17 07:08:29;;;;;;;4.07;1.40;;;;;;;19.77;nan;100069.69;5066383;28;20308;-80
2023/05/17 07:10:55;;;;;;;2.67;2.17;;;;;;;19.88;nan;100061.50;5065585;28;20673;-81
2023/05/17 07:13:20;;;;;;;5.03;2.17;;;;;;;20.06;nan;100070.41;5059813;28;20828;-80
2023/05/17 07:15:46;;;;;;;2.07;1.67;;;;;;;20.24;nan;100073.13;5062882;28;20300;-81
2023/05/17 07:18:11;;;;;;;4.30;1.83;;;;;;;20.29;nan;100067.34;5065590;28;20235;-81
2023/05/17 07:20:37;;;;;;;4.10;1.80;;;;;;;20.42;nan;100070.50;5067415;28;20205;-81
2023/05/17 07:23:02;;;;;;;2.63;2.37;;;;;;;20.76;nan;100070.69;5066108;28;20213;-81
2023/05/17 07:25:28;;;;;;;4.93;2.00;;;;;;;21.01;nan;100068.28;5068051;28;21035;-81
2023/05/17 07:27:53;;;;;;;5.40;2.50;;;;;;;20.83;nan;100076.28;5065148;28;20211;-81
2023/05/17 07:30:19;;;;;;;3.17;1.30;;;;;;;20.53;nan;100073.00;5067283;28;20214;-81
2023/05/17 07:32:44;;;;;;;3.00;1.30;;;;;;;20.45;nan;100077.38;5073436;28;20215;-81
2023/05/17 07:35:10;;;;;;;3.70;1.50;;;;;;;20.25;nan;100076.63;5068046;28;20529;-81
2023/05/17 07:37:35;;;;;;;4.80;1.70;;;;;;;19.82;nan;100078.06;5067266;28;20202;-81
2023/05/17 07:40:01;;;;;;;2.83;1.97;;;;;;;19.75;nan;100077.81;5070755;28;20205;-81
2023/05/17 07:42:26;;;;;;;5.20;1.83;;;;;;;20.07;nan;100082.75;5070949;28;20270;-81
2023/05/17 07:44:51;;;;;;;4.50;2.53;;;;;;;20.36;nan;100076.44;5066622;28;20212;-81
2023/05/17 07:47:17;;;;;;;4.20;2.27;;;;;;;20.38;nan;100077.13;5067026;28;20273;-80
2023/05/17 07:49:42;;;;;;;3.07;1.57;;;;;;;19.91;nan;100069.22;5071086;28;20194;-81
2023/05/17 07:52:08;;;;;;;3.07;1.97;;;;;;;19.23;nan;100091.50;5071528;28;20217;-81
2023/05/17 07:54:33;;;;;;;4.60;1.50;;;;;;;19.09;nan;100083.09;5050981;28;20222;-81
2023/05/17 07:56:59;;;;;;;5.97;1.97;;;;;;;18.66;nan;100090.47;5068051;28;20237;-81
2023/05/17 07:59:25;;;;;;;2.00;1.80;;;;;;;18.43;nan;100084.53;5063515;28;20227;-81
2023/05/17 08:01:51;;;;;;;4.87;1.97;;;;;;;18.49;nan;100069.84;5065503;28;20769;-81
2023/05/17 08:04:17;;;;;;;2.20;1.77;;;;;;;17.97;nan;100085.09;5065452;28;20241;-81
2023/05/17 08:06:45;;;;;;;4.97;2.30;;;;;;;18.06;nan;100087.75;5047890;28;20473;-81
2023/05/17 08:09:11;;;;;;;3.25;2.45;;;;;;;17.69;nan;100093.59;5064246;28;20217;-81
2023/05/17 08:11:40;;;;;;;2.30;2.07;;;;;;;17.38;nan;100095.34;5065524;28;20754;-81
2023/05/17 08:14:06;;;;;;;3.40;1.70;;;;;;;17.31;nan;100096.00;5063620;28;20246;-80
2023/05/17 08:16:31;;;;;;;3.40;1.97;;;;;;;17.27;nan;100089.25;5062820;28;20712;-80
2023/05/17 08:18:56;;;;;;;4.83;2.13;;;;;;;17.31;nan;100096.84;5066386;28;20229;-80
2023/05/17 08:24:17;;;;;;;2.17;1.30;;;;;;;17.31;nan;100102.16;4974441;28;20288;-78
2023/05/17 08:26:43;;;;;;;2.08;1.45;;;;;;;17.34;nan;100093.94;4984562;28;20212;-77
2023/05/17 08:29:08;;;;;;;3.80;1.50;;;;;;;17.39;nan;100094.41;4984360;28;20220;-77
2023/05/17 08:31:34;;;;;;;1.70;1.50;;;;;;;17.27;nan;100086.59;4998079;28;20234;-77
2023/05/17 08:33:59;;;;;;;5.10;1.77;;;;;;;17.03;nan;100099.13;4993927;28;20224;-78
2023/05/17 08:36:25;;;;;;;3.40;2.00;;;;;;;17.25;nan;100092.91;5008948;28;21902;-79
2023/05/17 08:38:51;;;;;;;3.10;1.95;;;;;;;17.40;nan;100101.38;5013124;28;20231;-79
2023/05/17 08:41:17;;;;;;;2.97;1.53;;;;;;;17.27;nan;100098.06;5014137;28;20976;-80
2023/05/17 08:43:43;;;;;;;3.20;1.60;;;;;;;17.20;nan;100096.88;5014049;28;20305;-77
2023/05/17 08:46:09;;;;;;;3.67;1.80;;;;;;;17.06;nan;100105.16;5014974;28;20895;-80
2023/05/17 08:48:37;;;;;;;4.67;2.30;;;;;;;16.85;nan;100103.31;5014668;28;20898;-78
2023/05/17 08:51:02;;;;;;;2.75;1.77;;;;;;;16.72;nan;100110.56;5014545;28;20199;-77
2023/05/17 08:53:28;;;;;;;5.07;1.73;;;;;;;16.68;nan;100103.81;5014936;28;20277;-80
2023/05/17 08:55:59;;;;;;;3.20;1.97;;;;;;;16.67;nan;100112.75;5014674;28;20229;-79
2023/05/17 08:58:30;;;;;;;3.28;1.70;;;;;;;16.72;nan;100110.56;5014032;28;20251;-77
2023/05/17 09:00:57;;;;;;;2.00;1.80;;;;;;;16.78;nan;100110.09;5016557;28;20242;-77
2023/05/17 09:03:25;;;;;;;2.58;1.67;;;;;;;16.81;nan;100113.31;5014649;28;21261;-79
2023/05/17 09:05:52;;;;;;;3.75;2.30;;;;;;;16.57;nan;100108.16;5013992;28;20519;-80
2023/05/17 09:08:21;;;;;;;3.00;1.58;;;;;;;16.38;nan;100106.16;5015491;28;20336;-80
2023/05/17 09:10:46;;;;;;;2.20;1.80;;;;;;;16.27;nan;100106.16;5015139;28;20243;-78
2023/05/17 09:13:12;;;;;;;3.10;1.90;;;;;;;16.18;nan;100106.06;5012508;28;20401;-80
2023/05/17 09:15:41;;;;;;;3.17;1.80;;;;;;;15.88;nan;100111.00;5012112;28;20231;-78
2023/05/17 09:18:10;;;;;;;3.58;1.88;;;;;;;15.89;nan;100112.66;5008516;28;20233;-77
2023/05/17 09:20:35;;;;;;;2.58;2.25;;;;;;;15.94;nan;100114.97;5015219;28;20208;-80
2023/05/17 09:23:03;;;;;;;2.00;1.47;;;;;;;15.97;nan;100101.47;4997007;28;20242;-79
2023/05/17 09:25:30;;;;;;;2.45;1.45;;;;;;;16.06;nan;100105.22;4991366;28;20768;-77
2023/05/17 09:27:59;;;;;;;2.50;1.50;;;;;;;16.17;nan;100107.00;4994943;28;20217;-78
2023/05/17 09:30:27;;;;;;;5.53;2.15;;;;;;;16.29;nan;100106.06;4990660;28;20240;-80
2023/05/17 09:32:54;;;;;;;2.90;1.52;;;;;;;16.43;nan;100113.75;4990931;28;20234;-78
2023/05/17 09:35:30;;;;;;;3.35;1.70;;;;;;;16.58;nan;100114.34;4993070;28;20449;-79
2023/05/17 09:38:12;;;;;;;2.53;1.90;;;;;;;16.71;nan;100109.69;4992220;28;20299;-80
2023/05/17 09:40:39;;;;;;;2.50;1.65;;;;;;;16.79;nan;100111.75;4992744;28;20298;-78
2023/05/17 09:43:05;;;;;;;2.65;1.70;;;;;;;17.08;nan;100105.88;4987928;28;20223;-80
2023/05/17 09:45:31;;;;;;;4.30;2.30;;;;;;;17.47;nan;100102.56;4993181;28;20222;-78
2023/05/17 09:48:10;;;;;;;3.25;2.00;;;;;;;17.68;nan;100094.53;4993323;28;20208;-79
2023/05/17 09:50:35;;;;;;;5.20;1.50;;;;;;;17.79;nan;100106.09;4990670;28;20219;-78
2023/05/17 09:53:01;;;;;;;2.23;1.40;;;;;;;17.79;nan;100096.31;4994261;28;20215;-77
2023/05/17 09:55:27;;;;;;;8.10;1.80;;;;;;;17.64;nan;100109.09;4990472;28;20452;-80
2023/05/17 09:57:52;;;;;;;2.78;1.65;;;;;;;17.44;nan;100101.94;4993226;28;20212;-80
2023/05/17 10:00:20;;;;;;;3.13;1.77;;;;;;;17.21;nan;100101.25;4992701;28;20546;-77
2023/05/17 10:02:48;;;;;;;4.15;1.80;;;;;;;17.10;nan;100102.13;4997272;28;20874;-79
2023/05/17 10:05:16;;;;;;;3.07;2.03;;;;;;;17.02;nan;100100.09;4990982;28;20453;-80
2023/05/17 10:07:44;;;;;;;6.75;2.85;;;;;;;17.04;nan;100107.97;4990885;28;20829;-79
2023/05/17 10:10:12;;;;;;;5.85;2.05;;;;;;;17.02;nan;100099.28;4989473;28;21013;-80
2023/05/17 10:12:39;;;;;;;4.03;2.50;;;;;;;17.00;nan;100099.38;4990288;28;20231;-78
2023/05/17 10:15:06;;;;;;;5.05;2.70;;;;;;;17.20;nan;100097.75;4989744;28;20216;-78
2023/05/17 10:17:34;;;;;;;3.92;2.72;;;;;;;17.33;nan;100097.53;4990634;28;20353;-80
2023/05/17 10:20:00;;;;;;;3.67;2.00;;;;;;;17.42;nan;100104.75;4990675;28;20214;-78
2023/05/17 10:22:27;;;;;;;4.15;1.67;;;;;;;17.53;nan;100098.53;4992165;28;20390;-81
2023/05/17 10:24:55;;;;;;;7.95;2.42;;;;;;;17.72;nan;100087.19;4992900;28;20621;-78
2023/05/17 10:27:20;;;;;;;3.53;1.95;;;;;;;17.91;nan;100076.66;4991912;28;20209;-78
2023/05/17 10:29:47;;;;;;;2.33;2.10;;;;;;;17.89;nan;100078.59;4986802;28;20213;-78
2023/05/17 10:32:13;;;;;;;2.50;1.90;;;;;;;17.75;nan;100075.44;4988010;28;20221;-81
2023/05/17 10:34:39;;;;;;;3.20;2.03;;;;;;;17.57;nan;100076.03;4992719;28;20806;-80
2023/05/17 10:37:06;;;;;;;4.43;1.80;;;;;;;17.47;nan;100075.13;4991256;28;20472;-77
2023/05/17 10:39:33;;;;;;;3.65;2.25;;;;;;;17.40;nan;100071.31;4990901;28;20470;-79
2023/05/17 10:42:02;;;;;;;2.85;2.03;;;;;;;17.28;nan;100067.88;4990750;28;20233;-78
2023/05/17 10:44:32;;;;;;;6.30;2.22;;;;;;;17.10;nan;100069.44;4992883;28;20200;-79
2023/05/17 10:47:01;;;;;;;4.78;2.13;;;;;;;16.92;nan;100085.91;4991735;28;20218;-77
2023/05/17 10:49:31;;;;;;;4.75;2.33;;;;;;;17.03;nan;100075.25;4993839;28;20399;-80
2023/05/17 10:51:57;;;;;;;2.83;1.67;;;;;;;17.25;nan;100078.75;4989649;28;20692;-78
2023/05/17 10:54:35;;;;;;;2.05;1.85;;;;;;;17.35;nan;100074.38;4994894;28;20214;-80
2023/05/17 10:57:04;;;;;;;3.78;1.80;;;;;;;17.29;nan;100066.94;4996035;28;20840;-79
2023/05/17 10:59:31;;;;;;;4.25;1.98;;;;;;;17.27;nan;100063.56;4993148;28;20217;-79
2023/05/17 11:02:09;;;;;;;3.85;2.17;;;;;;;17.35;nan;100066.41;4994061;28;21034;-80
2023/05/17 11:04:51;;;;;;;5.45;2.60;;;;;;;17.34;nan;100067.38;4993075;28;20427;-80
2023/05/17 11:07:17;;;;;;;4.40;2.00;;;;;;;17.35;nan;100054.94;4995910;28;20233;-79
2023/05/17 11:10:08;;;;;;;4.07;1.80;;;;;;;17.47;nan;100065.38;4994792;28;20231;-80
2023/05/17 11:12:42;;;;;;;4.53;2.28;;;;;;;17.48;nan;100055.59;4995886;28;20284;-78
2023/05/17 11:15:13;;;;;;;2.25;1.73;;;;;;;17.42;nan;100066.75;4996735;28;20217;-78
2023/05/17 11:17:41;;;;;;;3.65;2.13;;;;;;;17.52;nan;100066.78;4996081;28;20300;-78
2023/05/17 11:20:10;;;;;;;2.10;1.67;;;;;;;17.71;nan;100064.22;4995781;28;20585;-80
2023/05/17 11:22:38;;;;;;;3.25;2.63;;;;;;;17.82;nan;100064.19;4997993;28;20295;-79
2023/05/17 11:25:21;;;;;;;2.05;1.45;;;;;;;17.92;nan;100070.38;4998187;28;20208;-78
2023/05/17 11:27:49;;;;;;;4.85;2.17;;;;;;;17.91;nan;100060.72;4995495;28;20213;-80
2023/05/17 11:30:20;;;;;;;4.60;2.20;;;;;;;17.96;nan;100060.34;4978053;28;20250;-79
2023/05/17 11:32:48;;;;;;;3.55;1.90;;;;;;;18.13;nan;100069.47;4996067;28;22081;-81
2023/05/17 11:35:17;;;;;;;6.15;2.65;;;;;;;18.06;nan;100057.69;4991874;28;20581;-79
2023/05/17 11:37:43;;;;;;;3.38;2.30;;;;;;;17.97;nan;100047.88;4996836;28;20348;-80
2023/05/17 11:40:11;;;;;;;8.30;5.05;;;;;;;17.89;nan;100054.69;4994822;28;20299;-78
2023/05/17 11:42:38;;;;;;;4.67;2.77;;;;;;;17.93;nan;100057.94;4994668;28;20257;-80
2023/05/17 11:45:04;;;;;;;5.10;2.50;;;;;;;17.90;nan;100060.84;4981193;28;20476;-78
2023/05/17 11:47:31;;;;;;;3.63;2.20;;;;;;;17.98;nan;100063.66;4997037;28;20461;-80
2023/05/17 11:50:01;;;;;;;7.40;2.45;;;;;;;18.07;nan;100062.06;4995753;28;20518;-80